sensor_id;sensor_type;location;lat;lon;timestamp;pressure;altitude;pressure_sealevel;temperature;humidity
33286;BME280;19656;50.096;20.014;2023-09-18T00:04:47;99208.01;;;18.29;73.87
33286;BME280;19656;50.096;20.014;2023-09-18T00:09:52;99202.06;;;18.23;73.94
33286;BME280;19656;50.096;20.014;2023-09-18T00:14:56;99206.55;;;18.15;74.25
33286;BME280;19656;50.096;20.014;2023-09-18T00:20:04;99201.25;;;18.10;74.47
33286;BME280;19656;50.096;20.014;2023-09-18T00:25:11;99195.75;;;18.06;74.37
33286;BME280;19656;50.096;20.014;2023-09-18T00:30:15;99195.42;;;18.05;74.60
33286;BME280;19656;50.096;20.014;2023-09-18T00:35:19;99195.11;;;18.07;74.38
33286;BME280;19656;50.096;20.014;2023-09-18T00:40:26;99196.52;;;18.05;74.32
33286;BME280;19656;50.096;20.014;2023-09-18T00:45:32;99189.99;;;17.98;74.25
33286;BME280;19656;50.096;20.014;2023-09-18T00:50:37;99190.33;;;17.90;74.43
33286;BME280;19656;50.096;20.014;2023-09-18T00:55:44;99189.84;;;17.88;74.38
33286;BME280;19656;50.096;20.014;2023-09-18T01:00:48;99195.30;;;17.87;74.41
33286;BME280;19656;50.096;20.014;2023-09-18T01:05:55;99191.95;;;17.86;74.32
33286;BME280;19656;50.096;20.014;2023-09-18T01:16:27;99192.02;;;17.79;74.41
33286;BME280;19656;50.096;20.014;2023-09-18T01:21:37;99184.73;;;17.72;74.41
33286;BME280;19656;50.096;20.014;2023-09-18T01:26:41;99186.73;;;17.65;74.52
33286;BME280;19656;50.096;20.014;2023-09-18T01:31:45;99188.19;;;17.61;74.67
33286;BME280;19656;50.096;20.014;2023-09-18T01:36:53;99185.70;;;17.63;74.62
33286;BME280;19656;50.096;20.014;2023-09-18T01:42:04;99191.19;;;17.62;74.48
33286;BME280;19656;50.096;20.014;2023-09-18T01:47:17;99191.18;;;17.58;74.39
33286;BME280;19656;50.096;20.014;2023-09-18T01:52:23;99193.40;;;17.53;74.30
33286;BME280;19656;50.096;20.014;2023-09-18T01:57:29;99199.86;;;17.45;74.42
33286;BME280;19656;50.096;20.014;2023-09-18T02:02:35;99191.61;;;17.39;74.19
33286;BME280;19656;50.096;20.014;2023-09-18T02:07:51;99191.58;;;17.37;74.32
33286;BME280;19656;50.096;20.014;2023-09-18T02:12:57;99191.38;;;17.36;74.30
33286;BME280;19656;50.096;20.014;2023-09-18T02:18:03;99194.50;;;17.35;74.52
33286;BME280;19656;50.096;20.014;2023-09-18T04:45:31;99120.07;;;17.79;75.24
33286;BME280;19656;50.096;20.014;2023-09-18T04:50:35;99127.97;;;17.77;75.10
33286;BME280;19656;50.096;20.014;2023-09-18T04:55:41;99128.81;;;17.73;74.83
33286;BME280;19656;50.096;20.014;2023-09-18T05:00:44;99127.89;;;17.69;74.93
33286;BME280;19656;50.096;20.014;2023-09-18T05:05:51;99130.23;;;17.65;75.19
33286;BME280;19656;50.096;20.014;2023-09-18T05:10:58;99123.27;;;17.69;75.29
33286;BME280;19656;50.096;20.014;2023-09-18T05:16:04;99116.64;;;17.69;75.33
33286;BME280;19656;50.096;20.014;2023-09-18T05:21:09;99108.39;;;17.69;75.59
33286;BME280;19656;50.096;20.014;2023-09-18T05:28:21;99106.58;;;17.71;75.80
33286;BME280;19656;50.096;20.014;2023-09-18T05:33:26;99104.23;;;17.69;76.12
33286;BME280;19656;50.096;20.014;2023-09-18T05:38:31;99104.63;;;17.69;76.42
33286;BME280;19656;50.096;20.014;2023-09-18T05:43:36;99099.33;;;17.71;76.56
33286;BME280;19656;50.096;20.014;2023-09-18T05:48:40;99093.94;;;17.80;76.87
33286;BME280;19656;50.096;20.014;2023-09-18T05:53:45;99089.44;;;17.92;76.80
33286;BME280;19656;50.096;20.014;2023-09-18T05:58:48;99092.27;;;18.02;76.77
33286;BME280;19656;50.096;20.014;2023-09-18T06:03:53;99088.52;;;18.12;76.58
33286;BME280;19656;50.096;20.014;2023-09-18T06:08:58;99087.46;;;18.19;76.58
33286;BME280;19656;50.096;20.014;2023-09-18T06:14:02;99091.69;;;18.28;76.50
33286;BME280;19656;50.096;20.014;2023-09-18T06:19:07;99085.33;;;18.42;76.28
33286;BME280;19656;50.096;20.014;2023-09-18T06:24:10;99082.53;;;18.60;76.17
33286;BME280;19656;50.096;20.014;2023-09-18T06:29:14;99070.30;;;18.76;75.88
33286;BME280;19656;50.096;20.014;2023-09-18T06:34:19;99064.95;;;18.89;75.55
33286;BME280;19656;50.096;20.014;2023-09-18T06:39:24;99064.94;;;19.00;75.59
33286;BME280;19656;50.096;20.014;2023-09-18T06:44:31;99059.39;;;19.13;75.46
33286;BME280;19656;50.096;20.014;2023-09-18T06:49:36;99061.55;;;19.31;75.16
33286;BME280;19656;50.096;20.014;2023-09-18T06:54:40;99059.83;;;19.54;74.61
33286;BME280;19656;50.096;20.014;2023-09-18T06:59:45;99056.45;;;19.69;74.23
33286;BME280;19656;50.096;20.014;2023-09-18T07:04:48;99056.58;;;19.80;74.12
33286;BME280;19656;50.096;20.014;2023-09-18T07:09:54;99051.11;;;19.89;73.79
33286;BME280;19656;50.096;20.014;2023-09-18T07:15:02;99051.41;;;19.97;73.82
33286;BME280;19656;50.096;20.014;2023-09-18T07:20:09;99052.11;;;20.10;73.77
33286;BME280;19656;50.096;20.014;2023-09-18T07:25:17;99050.67;;;20.29;73.55
33286;BME280;19656;50.096;20.014;2023-09-18T07:30:21;99047.84;;;20.52;73.00
33286;BME280;19656;50.096;20.014;2023-09-18T07:35:25;99042.96;;;20.69;72.60
33286;BME280;19656;50.096;20.014;2023-09-18T07:40:29;99041.36;;;20.88;72.38
33286;BME280;19656;50.096;20.014;2023-09-18T07:45:33;99035.73;;;21.06;71.83
33286;BME280;19656;50.096;20.014;2023-09-18T07:50:37;99032.86;;;21.21;71.46
33286;BME280;19656;50.096;20.014;2023-09-18T07:55:40;99033.61;;;21.36;70.95
33286;BME280;19656;50.096;20.014;2023-09-18T08:00:43;99034.30;;;21.55;70.30
33286;BME280;19656;50.096;20.014;2023-09-18T08:10:27;99024.98;;;21.94;69.00
33286;BME280;19656;50.096;20.014;2023-09-18T08:15:32;99026.05;;;22.09;68.28
33286;BME280;19656;50.096;20.014;2023-09-18T08:20:45;99020.02;;;22.21;67.56
33286;BME280;19656;50.096;20.014;2023-09-18T08:25:50;99016.77;;;22.31;66.89
33286;BME280;19656;50.096;20.014;2023-09-18T09:08:47;98972.15;;;23.49;61.34
33286;BME280;19656;50.096;20.014;2023-09-18T09:14:11;98973.09;;;23.69;61.61
33286;BME280;19656;50.096;20.014;2023-09-18T09:19:29;98974.50;;;23.86;60.85
33286;BME280;19656;50.096;20.014;2023-09-18T09:24:40;98968.78;;;24.00;60.52
33286;BME280;19656;50.096;20.014;2023-09-18T09:29:59;98957.38;;;24.10;59.90
33286;BME280;19656;50.096;20.014;2023-09-18T09:35:05;98951.89;;;24.19;59.84
33286;BME280;19656;50.096;20.014;2023-09-18T09:40:12;98948.83;;;24.33;59.92
33286;BME280;19656;50.096;20.014;2023-09-18T09:45:18;98944.52;;;24.45;59.24
33286;BME280;19656;50.096;20.014;2023-09-18T09:50:24;98940.11;;;24.58;58.86
33286;BME280;19656;50.096;20.014;2023-09-18T09:55:33;98936.15;;;24.72;58.56
33286;BME280;19656;50.096;20.014;2023-09-18T10:00:45;98940.46;;;24.90;57.96
33286;BME280;19656;50.096;20.014;2023-09-18T10:05:52;98938.75;;;25.03;56.82
33286;BME280;19656;50.096;20.014;2023-09-18T10:11:06;98933.27;;;25.22;56.29
33286;BME280;19656;50.096;20.014;2023-09-18T10:16:18;98925.07;;;25.39;55.80
33286;BME280;19656;50.096;20.014;2023-09-18T10:21:38;98913.95;;;25.58;55.14
33286;BME280;19656;50.096;20.014;2023-09-18T10:26:59;98898.59;;;25.77;54.54
33286;BME280;19656;50.096;20.014;2023-09-18T10:32:06;98893.55;;;25.90;53.42
33286;BME280;19656;50.096;20.014;2023-09-18T10:37:14;98880.23;;;26.10;53.35
33286;BME280;19656;50.096;20.014;2023-09-18T10:42:18;98878.05;;;26.28;52.60
33286;BME280;19656;50.096;20.014;2023-09-18T10:47:25;98880.01;;;26.38;51.27
33286;BME280;19656;50.096;20.014;2023-09-18T10:52:32;98880.39;;;26.45;51.38
33286;BME280;19656;50.096;20.014;2023-09-18T10:57:37;98877.08;;;26.40;51.26
33286;BME280;19656;50.096;20.014;2023-09-18T11:03:12;98869.35;;;26.46;52.06
33286;BME280;19656;50.096;20.014;2023-09-18T11:08:43;98865.48;;;26.51;51.63
33286;BME280;19656;50.096;20.014;2023-09-18T11:13:52;98859.39;;;26.58;51.45
33286;BME280;19656;50.096;20.014;2023-09-18T11:19:08;98852.89;;;26.59;50.76
33286;BME280;19656;50.096;20.014;2023-09-18T11:24:22;98851.10;;;26.53;50.24
33286;BME280;19656;50.096;20.014;2023-09-18T11:29:29;98845.11;;;26.49;50.33
33286;BME280;19656;50.096;20.014;2023-09-18T11:34:37;98837.44;;;26.60;50.54
33286;BME280;19656;50.096;20.014;2023-09-18T11:39:45;98829.41;;;26.58;50.57
33286;BME280;19656;50.096;20.014;2023-09-18T11:44:51;98826.68;;;26.69;50.96
33286;BME280;19656;50.096;20.014;2023-09-18T11:49:57;98822.48;;;26.80;51.04
33286;BME280;19656;50.096;20.014;2023-09-18T11:55:02;98820.17;;;26.83;50.66
33286;BME280;19656;50.096;20.014;2023-09-18T12:00:19;98814.83;;;26.87;50.39
33286;BME280;19656;50.096;20.014;2023-09-18T12:05:27;98817.26;;;27.04;49.73
33286;BME280;19656;50.096;20.014;2023-09-18T12:10:32;98809.80;;;27.19;48.88
33286;BME280;19656;50.096;20.014;2023-09-18T12:15:37;98806.73;;;27.24;48.49
33286;BME280;19656;50.096;20.014;2023-09-18T12:20:46;98792.31;;;27.29;48.49
33286;BME280;19656;50.096;20.014;2023-09-18T12:26:02;98785.71;;;27.33;47.97
33286;BME280;19656;50.096;20.014;2023-09-18T12:31:15;98779.91;;;27.45;46.69
33286;BME280;19656;50.096;20.014;2023-09-18T12:36:20;98763.59;;;27.48;45.03
33286;BME280;19656;50.096;20.014;2023-09-18T12:41:26;98760.41;;;27.59;44.57
33286;BME280;19656;50.096;20.014;2023-09-18T12:46:36;98760.51;;;27.70;44.07
33286;BME280;19656;50.096;20.014;2023-09-18T12:51:41;98752.15;;;27.69;42.55
33286;BME280;19656;50.096;20.014;2023-09-18T12:56:46;98744.02;;;27.66;42.18
33286;BME280;19656;50.096;20.014;2023-09-18T15:05:28;98623.67;;;26.84;42.20
33286;BME280;19656;50.096;20.014;2023-09-18T15:10:34;98618.10;;;26.77;42.29
33286;BME280;19656;50.096;20.014;2023-09-18T15:15:39;98614.11;;;26.70;42.59
33286;BME280;19656;50.096;20.014;2023-09-18T15:20:43;98611.67;;;26.66;42.34
33286;BME280;19656;50.096;20.014;2023-09-18T15:25:51;98612.05;;;26.57;42.03
33286;BME280;19656;50.096;20.014;2023-09-18T15:30:57;98608.99;;;26.49;42.25
33286;BME280;19656;50.096;20.014;2023-09-18T15:36:02;98607.83;;;26.42;42.59
33286;BME280;19656;50.096;20.014;2023-09-18T15:41:05;98597.31;;;26.34;42.78
33286;BME280;19656;50.096;20.014;2023-09-18T15:46:09;98591.18;;;26.30;42.87
33286;BME280;19656;50.096;20.014;2023-09-18T15:51:12;98585.98;;;26.25;43.32
33286;BME280;19656;50.096;20.014;2023-09-18T15:56:15;98582.56;;;26.22;43.71
33286;BME280;19656;50.096;20.014;2023-09-18T16:01:18;98577.65;;;26.15;43.99
33286;BME280;19656;50.096;20.014;2023-09-18T16:10:27;98568.52;;;26.04;44.16
33286;BME280;19656;50.096;20.014;2023-09-18T16:15:32;98565.46;;;25.95;44.55
33286;BME280;19656;50.096;20.014;2023-09-18T16:20:37;98562.02;;;25.90;45.15
33286;BME280;19656;50.096;20.014;2023-09-18T16:25:42;98558.02;;;25.84;45.18
33286;BME280;19656;50.096;20.014;2023-09-18T16:30:46;98554.93;;;25.74;46.08
33286;BME280;19656;50.096;20.014;2023-09-18T16:35:50;98562.41;;;25.60;46.73
33286;BME280;19656;50.096;20.014;2023-09-18T16:40:53;98563.12;;;25.48;47.45
33286;BME280;19656;50.096;20.014;2023-09-18T16:45:58;98567.54;;;25.27;48.85
33286;BME280;19656;50.096;20.014;2023-09-18T16:51:03;98564.38;;;25.05;49.34
33286;BME280;19656;50.096;20.014;2023-09-18T16:56:07;98559.44;;;24.95;48.20
33286;BME280;19656;50.096;20.014;2023-09-18T17:01:12;98559.58;;;24.92;47.77
33286;BME280;19656;50.096;20.014;2023-09-18T17:06:17;98562.54;;;24.89;47.99
33286;BME280;19656;50.096;20.014;2023-09-18T17:11:22;98561.23;;;24.82;48.53
33286;BME280;19656;50.096;20.014;2023-09-18T17:16:27;98560.17;;;24.74;47.91
33286;BME280;19656;50.096;20.014;2023-09-18T17:21:33;98565.70;;;24.70;48.24
33286;BME280;19656;50.096;20.014;2023-09-18T17:26:38;98567.92;;;24.65;49.43
33286;BME280;19656;50.096;20.014;2023-09-18T17:31:43;98564.66;;;24.55;50.19
33286;BME280;19656;50.096;20.014;2023-09-18T17:36:48;98563.96;;;24.39;51.06
33286;BME280;19656;50.096;20.014;2023-09-18T17:41:54;98557.52;;;24.23;52.09
33286;BME280;19656;50.096;20.014;2023-09-18T17:46:58;98564.55;;;24.07;52.32
33286;BME280;19656;50.096;20.014;2023-09-18T17:52:02;98566.85;;;23.92;52.53
33286;BME280;19656;50.096;20.014;2023-09-18T17:57:11;98571.51;;;23.78;53.19
33286;BME280;19656;50.096;20.014;2023-09-18T18:02:14;98571.05;;;23.78;52.85
33286;BME280;19656;50.096;20.014;2023-09-18T18:07:21;98566.41;;;23.82;54.10
33286;BME280;19656;50.096;20.014;2023-09-18T18:12:26;98561.80;;;23.84;54.79
33286;BME280;19656;50.096;20.014;2023-09-18T18:17:31;98560.02;;;23.78;55.00
33286;BME280;19656;50.096;20.014;2023-09-18T18:22:36;98566.19;;;23.68;55.42
33286;BME280;19656;50.096;20.014;2023-09-18T18:27:40;98562.99;;;23.54;55.74
33286;BME280;19656;50.096;20.014;2023-09-18T18:32:44;98571.16;;;23.39;55.86
33286;BME280;19656;50.096;20.014;2023-09-18T18:37:51;98575.52;;;23.22;55.79
33286;BME280;19656;50.096;20.014;2023-09-18T18:42:57;98574.92;;;23.07;56.28
33286;BME280;19656;50.096;20.014;2023-09-18T18:48:07;98577.69;;;23.00;56.94
33286;BME280;19656;50.096;20.014;2023-09-18T18:53:12;98579.98;;;22.87;56.75
33286;BME280;19656;50.096;20.014;2023-09-18T18:58:16;98578.64;;;22.79;55.81
33286;BME280;19656;50.096;20.014;2023-09-18T19:03:21;98580.84;;;22.80;54.78
33286;BME280;19656;50.096;20.014;2023-09-18T19:08:30;98581.37;;;22.85;54.41
33286;BME280;19656;50.096;20.014;2023-09-18T19:13:37;98577.92;;;22.86;54.45
33286;BME280;19656;50.096;20.014;2023-09-18T19:18:48;98573.39;;;22.76;55.35
33286;BME280;19656;50.096;20.014;2023-09-18T19:23:57;98576.86;;;22.62;55.89
33286;BME280;19656;50.096;20.014;2023-09-18T19:29:04;98578.09;;;22.43;56.37
33286;BME280;19656;50.096;20.014;2023-09-18T19:34:11;98572.38;;;22.29;56.74
33286;BME280;19656;50.096;20.014;2023-09-18T19:39:20;98566.00;;;22.14;57.25
33286;BME280;19656;50.096;20.014;2023-09-18T19:44:25;98556.97;;;22.00;57.73
33286;BME280;19656;50.096;20.014;2023-09-18T19:49:30;98554.78;;;21.87;58.17
33286;BME280;19656;50.096;20.014;2023-09-18T19:54:35;98548.02;;;21.74;58.94
33286;BME280;19656;50.096;20.014;2023-09-18T19:59:40;98539.12;;;21.62;60.05
33286;BME280;19656;50.096;20.014;2023-09-18T20:04:45;98536.83;;;21.53;60.48
33286;BME280;19656;50.096;20.014;2023-09-18T20:09:49;98538.88;;;21.44;60.74
33286;BME280;19656;50.096;20.014;2023-09-18T20:14:54;98534.92;;;21.35;60.91
33286;BME280;19656;50.096;20.014;2023-09-18T20:19:58;98531.30;;;21.28;61.22
33286;BME280;19656;50.096;20.014;2023-09-18T20:25:06;98533.54;;;21.20;61.56
33286;BME280;19656;50.096;20.014;2023-09-18T20:30:15;98531.08;;;21.13;61.96
33286;BME280;19656;50.096;20.014;2023-09-18T20:35:18;98521.48;;;21.07;62.36
33286;BME280;19656;50.096;20.014;2023-09-18T20:40:24;98520.15;;;21.01;62.52
33286;BME280;19656;50.096;20.014;2023-09-18T20:45:30;98525.17;;;20.95;63.04
33286;BME280;19656;50.096;20.014;2023-09-18T20:50:36;98519.85;;;20.88;63.28
33286;BME280;19656;50.096;20.014;2023-09-18T20:55:41;98517.52;;;20.81;63.66
33286;BME280;19656;50.096;20.014;2023-09-18T21:00:49;98516.21;;;20.78;63.99
33286;BME280;19656;50.096;20.014;2023-09-18T21:05:55;98515.92;;;20.79;64.25
33286;BME280;19656;50.096;20.014;2023-09-18T21:11:01;98512.66;;;20.83;64.60
33286;BME280;19656;50.096;20.014;2023-09-18T21:16:07;98508.63;;;20.86;64.50
33286;BME280;19656;50.096;20.014;2023-09-18T21:21:11;98508.73;;;20.87;64.46
33286;BME280;19656;50.096;20.014;2023-09-18T21:26:20;98500.77;;;20.78;64.30
33286;BME280;19656;50.096;20.014;2023-09-18T21:31:25;98493.41;;;20.67;64.60
33286;BME280;19656;50.096;20.014;2023-09-18T21:36:31;98490.47;;;20.64;64.79
33286;BME280;19656;50.096;20.014;2023-09-18T21:41:36;98488.30;;;20.66;64.79
33286;BME280;19656;50.096;20.014;2023-09-18T21:46:41;98476.23;;;20.68;64.80
33286;BME280;19656;50.096;20.014;2023-09-18T21:51:46;98475.52;;;20.63;64.74
33286;BME280;19656;50.096;20.014;2023-09-18T21:56:51;98472.60;;;20.59;64.92
33286;BME280;19656;50.096;20.014;2023-09-18T22:01:56;98473.19;;;20.55;65.00
33286;BME280;19656;50.096;20.014;2023-09-18T22:07:01;98465.11;;;20.53;65.15
33286;BME280;19656;50.096;20.014;2023-09-18T22:12:06;98463.52;;;20.57;65.13
33286;BME280;19656;50.096;20.014;2023-09-18T22:17:11;98462.98;;;20.60;65.10
33286;BME280;19656;50.096;20.014;2023-09-18T22:22:14;98458.88;;;20.61;65.31
33286;BME280;19656;50.096;20.014;2023-09-18T22:27:20;98460.24;;;20.57;65.18
33286;BME280;19656;50.096;20.014;2023-09-18T22:32:24;98456.21;;;20.49;65.54
33286;BME280;19656;50.096;20.014;2023-09-18T22:37:29;98454.23;;;20.41;65.84
33286;BME280;19656;50.096;20.014;2023-09-18T22:58:54;98450.31;;;20.12;66.99
33286;BME280;19656;50.096;20.014;2023-09-18T23:03:59;98444.27;;;20.09;67.23
33286;BME280;19656;50.096;20.014;2023-09-18T23:09:03;98433.31;;;20.12;67.13
33286;BME280;19656;50.096;20.014;2023-09-18T23:14:22;98423.23;;;20.17;66.90
33286;BME280;19656;50.096;20.014;2023-09-18T23:19:26;98417.83;;;20.20;66.56
33286;BME280;19656;50.096;20.014;2023-09-18T23:24:31;98421.46;;;20.23;66.34
33286;BME280;19656;50.096;20.014;2023-09-18T23:29:36;98413.40;;;20.20;66.28
33286;BME280;19656;50.096;20.014;2023-09-18T23:34:42;98407.25;;;20.18;66.35
33286;BME280;19656;50.096;20.014;2023-09-18T23:39:47;98407.96;;;20.15;66.44
33286;BME280;19656;50.096;20.014;2023-09-18T23:44:53;98395.34;;;20.15;66.43
33286;BME280;19656;50.096;20.014;2023-09-18T23:49:57;98389.21;;;20.17;66.41
33286;BME280;19656;50.096;20.014;2023-09-18T23:55:05;98393.61;;;20.15;66.49
